Time;durP1;ratioP1;P1;durP2;ratioP2;P2;SDS_P1;SDS_P2;PMS_P1;PMS_P2;Temp;Humidity;BMP_temperature;BMP_pressure;BME280_temperature;BME280_humidity;BME280_pressure;Samples;Min_cycle;Max_cycle;Signal;HPM_P1;HPM_P2
2022/03/01 00:02:19;;;;;;;5.07;1.90;;;2.10;83.80;;;;;;5019016;28;20052;-83
2022/03/01 00:04:46;;;;;;;3.83;1.67;;;2.10;83.80;;;;;;5003137;28;20051;-83
2022/03/01 00:07:13;;;;;;;8.03;1.90;;;2.10;83.80;;;;;;5035605;28;20052;-83
2022/03/01 00:09:40;;;;;;;4.37;2.00;;;2.00;83.90;;;;;;5035171;28;20053;-83
2022/03/01 00:12:08;;;;;;;4.40;2.20;;;2.10;83.90;;;;;;5002809;28;20040;-83
2022/03/01 00:14:35;;;;;;;3.57;1.87;;;2.10;83.80;;;;;;5003052;28;20489;-83
2022/03/01 00:17:02;;;;;;;3.97;1.50;;;2.10;83.70;;;;;;5002442;28;20493;-83
2022/03/01 00:19:30;;;;;;;3.60;1.47;;;2.10;83.60;;;;;;5035068;28;20508;-82
2022/03/01 00:21:59;;;;;;;3.70;1.53;;;2.20;83.70;;;;;;5002624;28;20049;-77
2022/03/01 00:24:26;;;;;;;3.93;1.40;;;2.20;83.80;;;;;;5036819;28;20512;-77
2022/03/01 00:26:53;;;;;;;3.63;1.20;;;2.10;84.30;;;;;;5019257;28;20493;-77
2022/03/01 00:29:20;;;;;;;3.83;1.83;;;2.10;83.80;;;;;;5019105;28;20041;-77
2022/03/01 00:31:47;;;;;;;4.57;1.70;;;2.10;83.80;;;;;;5018488;28;20055;-77
2022/03/01 00:34:14;;;;;;;4.17;1.83;;;2.10;83.90;;;;;;5034958;28;20049;-78
2022/03/01 00:36:41;;;;;;;3.63;1.90;;;2.10;83.90;;;;;;5034446;28;20061;-77
2022/03/01 00:39:09;;;;;;;4.77;1.57;;;2.10;84.00;;;;;;5018403;28;20045;-77
2022/03/01 00:41:39;;;;;;;5.47;2.10;;;2.10;84.00;;;;;;5034806;28;20095;-77
2022/03/01 00:44:06;;;;;;;3.60;1.40;;;2.10;83.90;;;;;;5002028;28;20064;-76
2022/03/01 00:46:33;;;;;;;3.40;1.50;;;2.10;83.90;;;;;;5034791;28;20037;-77
2022/03/01 00:49:01;;;;;;;3.80;1.80;;;2.10;83.90;;;;;;5034515;28;20045;-77
2022/03/01 00:51:28;;;;;;;4.23;1.87;;;2.10;83.90;;;;;;5052420;28;20095;-77
2022/03/01 00:53:56;;;;;;;3.60;1.30;;;2.10;84.00;;;;;;5018144;28;20580;-77
2022/03/01 00:56:23;;;;;;;3.50;1.53;;;2.10;84.10;;;;;;5018112;28;20163;-77
2022/03/01 00:58:50;;;;;;;4.20;2.00;;;2.00;84.20;;;;;;5002046;28;20037;-82
2022/03/01 01:01:18;;;;;;;3.40;1.43;;;2.00;84.20;;;;;;5018141;28;20049;-83
2022/03/01 01:03:45;;;;;;;4.50;1.90;;;2.00;84.40;;;;;;5018281;28;20489;-82
2022/03/01 01:06:12;;;;;;;5.60;1.93;;;1.90;84.30;;;;;;5001868;28;20045;-83
2022/03/01 01:08:39;;;;;;;4.57;1.80;;;1.90;84.40;;;;;;5034498;28;20554;-82
2022/03/01 01:11:09;;;;;;;3.67;1.57;;;1.90;84.40;;;;;;5002809;28;20045;-82
2022/03/01 01:13:36;;;;;;;4.30;1.80;;;1.90;84.40;;;;;;5018081;28;20056;-83
2022/03/01 01:16:03;;;;;;;4.17;1.53;;;1.90;84.30;;;;;;5018003;28;20055;-83
2022/03/01 01:18:30;;;;;;;3.57;1.57;;;2.00;84.30;;;;;;5018057;28;20037;-83
2022/03/01 01:20:57;;;;;;;3.67;1.67;;;1.90;84.30;;;;;;5034308;28;20049;-82
2022/03/01 01:23:27;;;;;;;3.27;1.33;;;1.90;84.30;;;;;;5001974;28;20090;-82
2022/03/01 01:25:54;;;;;;;3.70;1.83;;;1.90;84.30;;;;;;5002053;28;20079;-83
2022/03/01 01:28:22;;;;;;;4.07;1.70;;;2.00;84.40;;;;;;5018001;28;20045;-83
2022/03/01 01:30:49;;;;;;;4.90;1.70;;;2.00;84.40;;;;;;5018235;28;20037;-83
2022/03/01 01:33:16;;;;;;;4.23;1.27;;;1.90;84.40;;;;;;5018301;28;20394;-83
2022/03/01 01:35:43;;;;;;;4.20;1.60;;;2.00;84.40;;;;;;5001518;28;20378;-83
2022/03/01 01:38:10;;;;;;;4.00;1.60;;;2.00;84.30;;;;;;5001657;28;20068;-83
2022/03/01 01:40:37;;;;;;;3.70;1.40;;;2.00;84.20;;;;;;5001539;28;20045;-81
2022/03/01 01:43:05;;;;;;;3.73;1.63;;;2.10;84.20;;;;;;5018035;28;20061;-82
2022/03/01 01:45:33;;;;;;;5.47;1.73;;;2.20;84.20;;;;;;5017694;28;20087;-82
2022/03/01 01:48:01;;;;;;;5.10;1.63;;;2.20;84.00;;;;;;5036370;28;20497;-82
2022/03/01 01:50:31;;;;;;;3.90;1.33;;;2.20;83.90;;;;;;5037918;28;20033;-82
2022/03/01 01:52:58;;;;;;;5.20;1.57;;;2.30;83.90;;;;;;5055617;28;20044;-81
2022/03/01 01:55:27;;;;;;;3.17;1.30;;;2.20;83.90;;;;;;5037741;28;20060;-81
2022/03/01 01:57:58;;;;;;;3.70;1.37;;;2.20;84.00;;;;;;5037644;28;20111;-81
2022/03/01 02:00:26;;;;;;;4.43;1.73;;;2.20;84.10;;;;;;5055609;28;20064;-81
2022/03/01 02:02:55;;;;;;;4.87;1.90;;;2.20;84.20;;;;;;5021459;28;20076;-81
2022/03/01 02:05:26;;;;;;;6.33;2.00;;;2.20;84.20;;;;;;5037605;28;20055;-81
2022/03/01 02:07:53;;;;;;;3.97;1.60;;;2.10;84.30;;;;;;5004890;28;20041;-82
2022/03/01 02:10:20;;;;;;;3.57;1.70;;;2.10;84.40;;;;;;4988704;28;20153;-76
2022/03/01 02:12:47;;;;;;;4.33;2.07;;;2.10;84.50;;;;;;5004710;28;20056;-81
2022/03/01 02:15:15;;;;;;;3.80;1.50;;;2.10;84.50;;;;;;5021320;28;20196;-81
2022/03/01 02:17:43;;;;;;;3.67;1.63;;;2.00;84.60;;;;;;5020949;28;20041;-81
2022/03/01 02:20:18;;;;;;;3.87;1.47;;;2.00;84.60;;;;;;5020879;28;20041;-81
2022/03/01 02:22:46;;;;;;;3.93;1.50;;;2.00;84.70;;;;;;5021904;28;20048;-81
2022/03/01 02:25:14;;;;;;;4.03;1.47;;;2.00;84.80;;;;;;5054948;28;20037;-81
2022/03/01 02:27:41;;;;;;;3.60;1.73;;;2.00;84.80;;;;;;5020788;28;20064;-81
2022/03/01 02:30:09;;;;;;;4.40;1.30;;;2.00;84.80;;;;;;5004597;28;20049;-81
2022/03/01 02:32:38;;;;;;;4.60;1.70;;;2.00;84.80;;;;;;5037291;28;20044;-81
2022/03/01 02:35:07;;;;;;;4.03;1.27;;;2.00;84.90;;;;;;5036663;28;20049;-81
2022/03/01 02:37:35;;;;;;;5.23;1.90;;;2.00;84.90;;;;;;5004072;28;20556;-81
2022/03/01 02:40:05;;;;;;;4.50;1.70;;;2.00;84.90;;;;;;5037004;28;20484;-81
2022/03/01 02:42:35;;;;;;;3.65;1.50;;;2.00;84.90;;;;;;5036711;28;20528;-81
2022/03/01 02:45:05;;;;;;;3.30;1.60;;;2.00;84.90;;;;;;5020422;28;20044;-81
2022/03/01 02:47:32;;;;;;;3.30;1.50;;;2.10;85.00;;;;;;5036785;28;20144;-81
2022/03/01 02:49:59;;;;;;;3.77;1.57;;;2.00;85.00;;;;;;5036661;28;20049;-81
2022/03/01 02:52:26;;;;;;;3.33;1.20;;;2.00;85.00;;;;;;5020211;28;20041;-81
2022/03/01 02:54:53;;;;;;;3.33;1.50;;;2.00;85.00;;;;;;5020033;28;20464;-81
2022/03/01 02:57:20;;;;;;;3.93;1.53;;;2.00;85.10;;;;;;5003706;28;20512;-76
2022/03/01 02:59:47;;;;;;;3.30;1.37;;;2.00;85.20;;;;;;5018923;28;20234;-76
2022/03/01 03:02:15;;;;;;;2.93;1.60;;;1.90;85.20;;;;;;5003887;28;20045;-76
2022/03/01 03:04:43;;;;;;;3.53;1.63;;;1.90;85.20;;;;;;4988072;28;20556;-76
2022/03/01 03:07:11;;;;;;;4.70;1.60;;;1.90;85.30;;;;;;5003514;28;20098;-76
2022/03/01 03:09:42;;;;;;;3.73;1.37;;;1.90;85.40;;;;;;5053734;28;20072;-76
2022/03/01 03:12:09;;;;;;;3.20;1.53;;;1.90;85.40;;;;;;5035747;28;20136;-75
2022/03/01 03:14:36;;;;;;;4.07;1.60;;;1.90;85.40;;;;;;5003747;28;20052;-76
2022/03/01 03:17:04;;;;;;;4.17;1.37;;;2.00;85.50;;;;;;5019810;28;20053;-76
2022/03/01 03:19:32;;;;;;;3.87;1.60;;;1.90;85.50;;;;;;5036384;28;20599;-76
2022/03/01 03:22:00;;;;;;;4.03;1.63;;;1.90;85.60;;;;;;5019658;28;20045;-76
2022/03/01 03:24:27;;;;;;;4.30;1.80;;;1.90;85.60;;;;;;5020056;28;20477;-76
2022/03/01 03:26:54;;;;;;;4.37;2.03;;;1.90;85.60;;;;;;5019672;28;20103;-76
2022/03/01 03:29:21;;;;;;;3.87;1.90;;;1.90;85.60;;;;;;5019748;28;20056;-76
2022/03/01 03:31:48;;;;;;;4.93;1.97;;;2.00;85.60;;;;;;5019659;28;20057;-76
2022/03/01 03:34:15;;;;;;;4.87;2.53;;;2.00;85.60;;;;;;5003531;28;20458;-76
2022/03/01 03:36:43;;;;;;;3.90;1.87;;;2.00;85.60;;;;;;5003344;28;20055;-76
2022/03/01 03:39:11;;;;;;;3.60;1.50;;;2.00;85.60;;;;;;5022465;28;20049;-76
2022/03/01 03:41:39;;;;;;;4.93;1.77;;;2.00;85.60;;;;;;5027054;28;20052;-76
2022/03/01 03:44:06;;;;;;;5.53;2.10;;;2.00;85.60;;;;;;5004737;28;20115;-76
2022/03/01 03:46:33;;;;;;;3.93;1.80;;;2.00;85.60;;;;;;5042202;28;20053;-76
2022/03/01 03:49:01;;;;;;;3.50;1.70;;;2.00;85.60;;;;;;5042063;28;20529;-76
2022/03/01 03:51:28;;;;;;;5.40;1.70;;;2.00;85.60;;;;;;5044168;28;20049;-77
2022/03/01 03:53:56;;;;;;;4.77;1.70;;;2.10;85.70;;;;;;5053842;28;20053;-76
2022/03/01 03:56:23;;;;;;;4.70;1.83;;;2.10;85.70;;;;;;5002719;28;20466;-76
2022/03/01 03:58:50;;;;;;;5.07;1.57;;;2.10;85.70;;;;;;5018788;28;20508;-76
2022/03/01 04:01:17;;;;;;;4.00;1.53;;;2.10;85.70;;;;;;5002675;28;20114;-76
2022/03/01 04:03:45;;;;;;;4.80;1.83;;;2.00;85.70;;;;;;5019435;28;20350;-76
2022/03/01 04:06:12;;;;;;;3.83;1.83;;;2.10;85.80;;;;;;5018914;28;20044;-76
2022/03/01 04:08:39;;;;;;;4.53;1.60;;;2.10;85.80;;;;;;5018871;28;20051;-76
2022/03/01 04:11:06;;;;;;;4.20;1.73;;;2.10;85.90;;;;;;5018461;28;20394;-76
2022/03/01 04:13:34;;;;;;;2.17;1.03;;;2.10;85.90;;;;;;5002622;28;20037;-76
2022/03/01 04:16:02;;;;;;;4.07;1.50;;;2.10;85.90;;;;;;5018914;28;20265;-76
2022/03/01 04:18:29;;;;;;;4.53;1.53;;;2.10;85.90;;;;;;5018553;28;20452;-76
2022/03/01 04:20:56;;;;;;;3.67;1.87;;;2.10;85.90;;;;;;5018608;28;20095;-75
2022/03/01 04:23:23;;;;;;;3.87;1.63;;;2.20;86.00;;;;;;5002479;28;20394;-76
2022/03/01 04:25:50;;;;;;;4.03;1.60;;;2.20;86.00;;;;;;5018449;28;20037;-76
2022/03/01 04:28:17;;;;;;;3.83;1.73;;;2.20;86.00;;;;;;5034891;28;20407;-76
2022/03/01 04:30:45;;;;;;;2.93;1.30;;;2.20;86.00;;;;;;5019005;28;20489;-76
2022/03/01 04:33:12;;;;;;;3.47;1.40;;;2.20;86.00;;;;;;5018585;28;20114;-76
2022/03/01 04:35:39;;;;;;;4.67;1.47;;;2.20;86.00;;;;;;5018342;28;20090;-76
2022/03/01 04:38:07;;;;;;;4.63;1.90;;;2.20;85.90;;;;;;5018731;28;20402;-76
2022/03/01 04:40:34;;;;;;;3.77;1.60;;;2.20;85.90;;;;;;5018471;28;20037;-76
2022/03/01 04:43:01;;;;;;;3.20;1.47;;;2.20;85.90;;;;;;4986046;28;20422;-77
2022/03/01 04:45:28;;;;;;;4.07;1.90;;;2.20;86.00;;;;;;5018334;28;20099;-76
2022/03/01 04:47:56;;;;;;;4.03;1.90;;;2.20;86.00;;;;;;5002132;28;20091;-76
2022/03/01 04:50:23;;;;;;;4.33;1.73;;;2.10;86.00;;;;;;5002136;28;20139;-76
2022/03/01 04:52:50;;;;;;;3.93;1.60;;;2.10;86.10;;;;;;5002098;28;20064;-76
2022/03/01 04:55:17;;;;;;;4.30;1.63;;;2.10;86.20;;;;;;5018410;28;20056;-76
2022/03/01 04:57:44;;;;;;;5.07;1.73;;;2.10;86.20;;;;;;5017992;28;20114;-81
2022/03/01 05:00:12;;;;;;;4.60;1.60;;;2.10;86.90;;;;;;5018095;28;20454;-81
2022/03/01 05:02:45;;;;;;;5.50;1.60;;;2.10;86.30;;;;;;5018317;28;20049;-81
2022/03/01 05:05:13;;;;;;;3.67;1.85;;;2.10;86.30;;;;;;5002545;28;20045;-82
2022/03/01 05:07:43;;;;;;;4.03;1.67;;;2.10;86.20;;;;;;5018051;28;20499;-82
2022/03/01 05:10:11;;;;;;;4.40;1.85;;;2.20;86.30;;;;;;5018090;28;20700;-82
2022/03/01 05:12:46;;;;;;;6.43;2.47;;;2.20;86.20;;;;;;5018086;28;20045;-82
2022/03/01 05:15:13;;;;;;;4.53;1.63;;;2.20;86.20;;;;;;5034396;28;20559;-82
2022/03/01 05:17:41;;;;;;;5.37;1.87;;;2.20;86.30;;;;;;5034020;28;20075;-82
2022/03/01 05:20:09;;;;;;;4.53;1.90;;;2.10;86.20;;;;;;5018000;28;20041;-82
2022/03/01 05:22:37;;;;;;;4.67;1.60;;;2.20;86.30;;;;;;5003548;28;20132;-81
2022/03/01 05:25:06;;;;;;;4.10;1.77;;;2.20;86.30;;;;;;5005845;28;20045;-82
2022/03/01 05:27:37;;;;;;;4.60;1.70;;;2.20;86.20;;;;;;5039006;28;20041;-82
2022/03/01 05:30:06;;;;;;;4.13;2.07;;;2.30;86.20;;;;;;5038033;28;20335;-82
2022/03/01 05:32:34;;;;;;;3.80;1.50;;;2.30;86.20;;;;;;5021935;28;20044;-81
2022/03/01 05:35:02;;;;;;;4.37;1.83;;;2.30;86.10;;;;;;5038143;28;20144;-81
2022/03/01 05:37:32;;;;;;;5.10;1.97;;;2.20;86.10;;;;;;5020268;28;20627;-81
2022/03/01 05:39:59;;;;;;;4.23;1.70;;;2.30;86.20;;;;;;5058010;28;20098;-81
2022/03/01 05:42:26;;;;;;;4.17;1.63;;;2.30;86.10;;;;;;5045627;28;20041;-81
2022/03/01 05:44:55;;;;;;;4.63;1.93;;;2.30;86.20;;;;;;5042932;28;20520;-76
2022/03/01 05:47:22;;;;;;;4.70;1.93;;;2.20;86.10;;;;;;5041753;28;20068;-77
2022/03/01 05:49:49;;;;;;;4.70;1.97;;;2.20;86.20;;;;;;5041087;28;20051;-78
2022/03/01 05:52:16;;;;;;;4.03;1.90;;;2.20;86.30;;;;;;5008419;28;20052;-78
2022/03/01 05:54:46;;;;;;;4.70;1.70;;;2.10;86.30;;;;;;5025024;28;20041;-78
2022/03/01 05:57:13;;;;;;;3.90;1.73;;;2.10;86.40;;;;;;5024818;28;20389;-77
2022/03/01 05:59:41;;;;;;;4.53;2.13;;;2.10;86.50;;;;;;5057997;28;20039;-77
2022/03/01 06:02:07;;;;;;;4.00;1.93;;;2.10;86.50;;;;;;5057748;28;20068;-77
2022/03/01 06:04:35;;;;;;;4.10;1.93;;;2.10;86.40;;;;;;5041221;28;20051;-77
2022/03/01 06:07:02;;;;;;;5.10;1.93;;;2.20;86.40;;;;;;5025115;28;20131;-77
2022/03/01 06:09:29;;;;;;;4.67;1.97;;;2.20;86.30;;;;;;5024442;28;20412;-78
2022/03/01 06:11:56;;;;;;;4.97;1.70;;;2.20;86.20;;;;;;5057404;28;20093;-77
2022/03/01 06:14:23;;;;;;;4.60;2.20;;;2.30;86.30;;;;;;5024559;28;20040;-77
2022/03/01 06:16:50;;;;;;;4.63;1.90;;;2.30;86.20;;;;;;5024450;28;20143;-77
2022/03/01 06:19:18;;;;;;;4.70;2.17;;;2.20;86.20;;;;;;5075336;28;20067;-77
2022/03/01 06:21:45;;;;;;;4.83;1.93;;;2.30;86.30;;;;;;5057675;28;20044;-77
2022/03/01 06:24:15;;;;;;;4.93;1.87;;;2.30;86.30;;;;;;5009038;28;20059;-77
2022/03/01 06:26:43;;;;;;;4.93;2.17;;;2.30;86.30;;;;;;5057160;28;20404;-77
2022/03/01 06:29:10;;;;;;;5.35;2.15;;;2.30;86.30;;;;;;5024384;28;20380;-77
2022/03/01 06:31:37;;;;;;;4.30;1.73;;;2.30;86.20;;;;;;5057054;28;20070;-77
2022/03/01 06:34:04;;;;;;;4.00;1.53;;;2.30;86.30;;;;;;5040145;28;20107;-76
2022/03/01 06:36:31;;;;;;;4.07;1.60;;;2.30;86.90;;;;;;5040384;28;20048;-76
2022/03/01 06:38:58;;;;;;;5.07;2.00;;;2.30;87.00;;;;;;5058454;28;20041;-77
2022/03/01 06:41:25;;;;;;;4.68;1.55;;;2.30;86.30;;;;;;5042563;28;20044;-76
2022/03/01 06:43:52;;;;;;;3.97;1.87;;;2.30;86.30;;;;;;5025921;28;20447;-76
2022/03/01 06:46:20;;;;;;;4.17;1.43;;;2.30;86.30;;;;;;5026786;28;20044;-77
2022/03/01 06:48:48;;;;;;;3.67;1.60;;;2.30;86.30;;;;;;5060185;28;20055;-77
2022/03/01 06:51:17;;;;;;;3.90;2.00;;;2.40;86.40;;;;;;5012443;28;20052;-77
2022/03/01 06:53:44;;;;;;;5.23;2.30;;;2.40;86.30;;;;;;5026160;28;20138;-77
2022/03/01 06:56:11;;;;;;;4.03;2.00;;;2.40;86.30;;;;;;5056631;28;20111;-77
2022/03/01 06:58:38;;;;;;;4.23;2.17;;;2.40;86.30;;;;;;5040069;28;20044;-84
2022/03/01 07:01:06;;;;;;;3.97;1.80;;;2.40;86.20;;;;;;5057018;28;20080;-83
2022/03/01 07:03:34;;;;;;;4.23;1.97;;;2.40;86.20;;;;;;5040353;28;20373;-84
2022/03/01 07:06:01;;;;;;;5.77;2.20;;;2.50;86.20;;;;;;5024044;28;20159;-83
2022/03/01 07:08:28;;;;;;;4.67;2.50;;;2.50;86.20;;;;;;5040290;28;20102;-84
2022/03/01 07:10:55;;;;;;;5.00;2.30;;;2.50;86.10;;;;;;5023522;28;20501;-83
2022/03/01 07:13:24;;;;;;;5.67;2.60;;;2.50;86.10;;;;;;5023916;28;20147;-83
2022/03/01 07:15:51;;;;;;;4.23;1.87;;;2.60;86.10;;;;;;5023394;28;20048;-83
2022/03/01 07:18:18;;;;;;;4.70;1.90;;;2.60;86.10;;;;;;5039691;28;20215;-84
2022/03/01 07:20:45;;;;;;;4.40;1.97;;;2.60;86.10;;;;;;5023469;28;20048;-83
2022/03/01 07:23:13;;;;;;;4.28;1.90;;;2.70;86.10;;;;;;5039151;28;20143;-83
2022/03/01 07:25:42;;;;;;;4.73;1.83;;;2.70;86.00;;;;;;5039866;28;20056;-83
2022/03/01 07:28:09;;;;;;;5.33;1.70;;;2.80;86.00;;;;;;5039416;28;20052;-83
2022/03/01 07:30:37;;;;;;;4.93;2.07;;;2.90;86.00;;;;;;5039838;28;20451;-83
2022/03/01 07:33:04;;;;;;;4.28;1.58;;;2.90;85.90;;;;;;5023124;28;20059;-83
2022/03/01 07:35:31;;;;;;;5.22;2.17;;;3.00;85.90;;;;;;5023262;28;20147;-83
2022/03/01 07:37:58;;;;;;;4.45;2.10;;;3.10;85.80;;;;;;5022883;28;20102;-82
2022/03/01 07:40:27;;;;;;;3.85;2.10;;;3.10;85.70;;;;;;5039354;28;20155;-82
2022/03/01 07:42:54;;;;;;;5.82;2.45;;;3.20;85.60;;;;;;5055664;28;20048;-82
2022/03/01 07:45:22;;;;;;;5.40;2.95;;;3.30;85.60;;;;;;5063797;28;20105;-82
2022/03/01 07:47:51;;;;;;;4.15;2.00;;;3.40;85.50;;;;;;5058814;28;20051;-82
2022/03/01 07:50:18;;;;;;;4.53;2.15;;;3.40;85.30;;;;;;5075236;28;20043;-82
2022/03/01 07:52:47;;;;;;;4.65;2.30;;;3.50;85.20;;;;;;5058931;28;20430;-83
2022/03/01 07:55:16;;;;;;;4.20;1.70;;;3.60;85.10;;;;;;5027588;28;20048;-83
2022/03/01 07:57:46;;;;;;;4.85;1.92;;;3.60;84.90;;;;;;5059760;28;20046;-86
2022/03/01 08:00:17;;;;;;;5.55;2.20;;;3.70;84.80;;;;;;5060288;28;20048;-87
2022/03/01 08:02:45;;;;;;;5.10;2.05;;;3.80;84.80;;;;;;5043316;28;20051;-86
2022/03/01 08:05:13;;;;;;;4.53;2.10;;;3.80;84.70;;;;;;5059170;28;20834;-86
2022/03/01 08:07:49;;;;;;;3.88;1.75;;;3.90;84.60;;;;;;5060714;28;20044;-86
2022/03/01 08:10:16;;;;;;;4.60;1.85;;;3.90;85.10;;;;;;5075556;28;20044;-83
2022/03/01 08:12:45;;;;;;;4.40;2.25;;;3.90;84.50;;;;;;5042538;28;20044;-83
2022/03/01 08:15:12;;;;;;;5.20;1.88;;;3.90;84.40;;;;;;5041798;28;20116;-83
2022/03/01 08:17:51;;;;;;;5.20;2.50;;;4.00;84.40;;;;;;5093434;28;20040;-83
2022/03/01 08:20:21;;;;;;;4.35;2.08;;;4.00;84.20;;;;;;5075340;28;20032;-84
2022/03/01 08:22:51;;;;;;;4.53;1.88;;;4.00;84.30;;;;;;5075154;28;20123;-76
2022/03/01 08:25:19;;;;;;;4.63;1.83;;;4.00;84.20;;;;;;5074536;28;20070;-76
2022/03/01 08:27:47;;;;;;;3.83;2.25;;;4.10;84.20;;;;;;5041599;28;20116;-76
2022/03/01 08:30:18;;;;;;;4.07;2.17;;;4.10;84.80;;;;;;5058903;28;20052;-76
2022/03/01 08:32:46;;;;;;;4.95;2.00;;;4.10;84.20;;;;;;5075011;28;20202;-76
2022/03/01 08:35:13;;;;;;;4.53;1.98;;;4.20;84.20;;;;;;5058436;28;20180;-83
2022/03/01 08:37:49;;;;;;;4.25;2.03;;;4.20;84.10;;;;;;5059015;28;20139;-83
2022/03/01 08:40:19;;;;;;;4.82;2.40;;;4.30;84.00;;;;;;5058103;28;20404;-82
2022/03/01 08:42:46;;;;;;;3.63;1.83;;;4.40;83.90;;;;;;5042089;28;20048;-85
2022/03/01 08:45:13;;;;;;;4.32;2.25;;;4.50;83.70;;;;;;5058478;28;20036;-82
2022/03/01 08:47:41;;;;;;;4.40;2.33;;;4.60;83.50;;;;;;5058681;28;20109;-88
2022/03/01 08:50:09;;;;;;;3.97;2.28;;;4.70;83.20;;;;;;5059009;28;20147;-88
2022/03/01 08:52:56;;;;;;;4.05;2.28;;;4.90;83.20;;;;;;5065344;28;20476;-84
2022/03/01 08:55:23;;;;;;;4.63;2.28;;;4.90;83.00;;;;;;5058507;28;20411;-83
2022/03/01 08:57:50;;;;;;;5.15;1.98;;;5.00;82.90;;;;;;5025512;28;20044;-84
2022/03/01 09:00:18;;;;;;;5.28;1.98;;;5.10;82.80;;;;;;5045978;28;20063;-88
2022/03/01 09:02:45;;;;;;;4.80;2.05;;;5.20;82.80;;;;;;5063503;28;20071;-87
2022/03/01 09:05:12;;;;;;;4.03;1.85;;;5.20;82.60;;;;;;5042233;28;20052;-85
2022/03/01 09:07:39;;;;;;;3.75;2.08;;;5.30;82.80;;;;;;5075846;28;20040;-88
2022/03/01 09:10:07;;;;;;;4.65;2.00;;;5.40;82.50;;;;;;5075783;28;20046;-88
2022/03/01 09:12:34;;;;;;;4.13;1.67;;;5.50;82.40;;;;;;5058567;28;20090;-88
2022/03/01 09:15:03;;;;;;;4.85;2.22;;;5.50;82.30;;;;;;5058938;28;20032;-87
2022/03/01 09:17:31;;;;;;;4.45;2.03;;;5.60;82.10;;;;;;5075206;28;20147;-87
2022/03/01 09:19:58;;;;;;;3.28;1.38;;;5.70;82.00;;;;;;5058671;28;20135;-87
2022/03/01 09:22:28;;;;;;;3.72;1.80;;;5.80;81.90;;;;;;5042725;28;20040;-87
2022/03/01 09:24:55;;;;;;;3.80;1.80;;;5.80;81.70;;;;;;5059033;28;20054;-87
2022/03/01 09:27:23;;;;;;;3.78;1.95;;;5.90;81.60;;;;;;5041852;28;20044;-87
2022/03/01 09:29:50;;;;;;;4.28;2.08;;;6.00;81.50;;;;;;5042264;28;20585;-84
2022/03/01 09:32:18;;;;;;;3.70;1.73;;;6.10;81.40;;;;;;5041121;28;20496;-83
2022/03/01 09:34:45;;;;;;;3.92;2.00;;;6.10;81.30;;;;;;5041464;28;20048;-82
2022/03/01 09:37:12;;;;;;;4.72;2.15;;;6.20;81.20;;;;;;5079453;28;20381;-83
2022/03/01 09:39:39;;;;;;;5.35;2.40;;;6.30;81.70;;;;;;5037848;28;20048;-85
2022/03/01 09:42:08;;;;;;;2.60;1.48;;;6.40;81.00;;;;;;5054288;28;20489;-83
2022/03/01 09:44:35;;;;;;;3.70;1.98;;;6.40;80.80;;;;;;5021251;28;20106;-83
2022/03/01 09:47:03;;;;;;;5.18;2.25;;;6.50;80.70;;;;;;5021361;28;20135;-82
2022/03/01 09:49:30;;;;;;;4.65;1.70;;;6.50;80.50;;;;;;5021084;28;20047;-82
2022/03/01 09:51:57;;;;;;;4.95;2.10;;;6.50;80.50;;;;;;5021147;28;20040;-82
2022/03/01 09:54:24;;;;;;;4.22;1.95;;;6.60;80.40;;;;;;5054510;28;20056;-89
2022/03/01 09:56:51;;;;;;;3.85;2.10;;;6.60;80.30;;;;;;5039026;28;20082;-89
2022/03/01 09:59:20;;;;;;;4.38;2.15;;;6.70;80.20;;;;;;5073175;28;20033;-88
2022/03/01 10:01:50;;;;;;;5.45;1.65;;;6.80;79.90;;;;;;5006906;28;20586;-88
2022/03/01 10:04:18;;;;;;;5.07;2.47;;;6.80;79.70;;;;;;5039007;28;20052;-88
2022/03/01 10:06:48;;;;;;;5.28;2.22;;;6.90;79.60;;;;;;5038963;28;20045;-88
2022/03/01 10:09:21;;;;;;;4.03;2.17;;;7.00;79.50;;;;;;5041378;28;20048;-89
2022/03/01 10:11:49;;;;;;;3.58;1.65;;;7.10;79.30;;;;;;5044956;28;20078;-88
2022/03/01 10:14:31;;;;;;;4.30;1.90;;;7.10;79.30;;;;;;5061080;28;20088;-88
2022/03/01 10:16:59;;;;;;;4.10;2.07;;;7.20;79.00;;;;;;5045080;28;20040;-89
2022/03/01 10:19:27;;;;;;;3.15;1.70;;;7.20;79.00;;;;;;5044063;28;20309;-88
2022/03/01 10:22:02;;;;;;;4.30;2.03;;;7.30;78.90;;;;;;5044545;28;20232;-87
2022/03/01 10:24:30;;;;;;;3.08;1.40;;;7.40;78.70;;;;;;5042194;28;20468;-86
2022/03/01 10:26:59;;;;;;;3.78;1.70;;;7.50;78.60;;;;;;5041385;28;20072;-87
2022/03/01 10:29:46;;;;;;;6.38;3.03;;;7.60;78.40;;;;;;5060357;28;20048;-88
2022/03/01 10:32:15;;;;;;;5.75;3.42;;;7.70;78.00;;;;;;5041918;28;20040;-88
2022/03/01 10:35:08;;;;;;;5.47;2.40;;;7.80;77.70;;;;;;5041727;28;20045;-88
2022/03/01 10:37:37;;;;;;;4.72;2.25;;;7.90;77.40;;;;;;5073437;28;20108;-88
2022/03/01 10:40:18;;;;;;;4.35;2.58;;;8.00;77.50;;;;;;5045103;28;20044;-87
2022/03/01 10:43:09;;;;;;;4.53;2.03;;;8.10;77.20;;;;;;5061799;28;20101;-87
2022/03/01 10:45:43;;;;;;;7.63;3.97;;;8.20;76.90;;;;;;5061361;28;20036;-87
2022/03/01 10:48:12;;;;;;;5.53;2.78;;;8.20;77.30;;;;;;5078008;28;20048;-87
2022/03/01 10:50:40;;;;;;;5.82;2.75;;;8.30;76.50;;;;;;5077705;28;20044;-87
2022/03/01 10:53:08;;;;;;;5.95;3.42;;;8.30;76.10;;;;;;5044515;28;20049;-87
2022/03/01 10:55:38;;;;;;;7.05;3.95;;;8.30;75.20;;;;;;5044253;28;20044;-87
2022/03/01 10:58:12;;;;;;;6.40;3.53;;;8.30;75.50;;;;;;5077160;28;20048;-87
2022/03/01 11:00:40;;;;;;;5.47;2.75;;;8.30;75.60;;;;;;5095460;28;20093;-86
2022/03/01 11:03:08;;;;;;;5.57;2.72;;;8.40;75.60;;;;;;5060958;28;20079;-87
2022/03/01 11:05:36;;;;;;;5.47;2.42;;;8.50;75.60;;;;;;5044502;28;20055;-87
2022/03/01 11:08:35;;;;;;;4.88;2.10;;;8.60;75.60;;;;;;5065860;28;20484;-79
2022/03/01 11:11:06;;;;;;;4.22;2.33;;;8.70;75.40;;;;;;5059704;28;20048;-79
2022/03/01 11:13:43;;;;;;;6.75;3.22;;;8.80;75.20;;;;;;5059493;28;20485;-79
2022/03/01 11:16:39;;;;;;;4.97;2.35;;;8.80;74.80;;;;;;5059725;28;20063;-80
2022/03/01 11:19:13;;;;;;;4.25;2.40;;;8.90;74.50;;;;;;5058947;28;20078;-79
2022/03/01 11:21:47;;;;;;;6.60;2.97;;;8.90;74.60;;;;;;5075813;28;20044;-79
2022/03/01 11:24:18;;;;;;;3.80;1.90;;;9.00;74.60;;;;;;5076041;28;20040;-79
2022/03/01 11:26:46;;;;;;;4.70;2.03;;;9.10;74.60;;;;;;5076034;28;20043;-79
2022/03/01 11:29:16;;;;;;;2.92;1.55;;;9.10;74.50;;;;;;5059399;28;20151;-79
2022/03/01 11:31:59;;;;;;;3.67;2.08;;;9.30;74.50;;;;;;5059361;28;20048;-79
2022/03/01 11:34:27;;;;;;;3.90;1.90;;;9.40;74.10;;;;;;5075711;28;20036;-79
2022/03/01 11:36:56;;;;;;;4.57;2.50;;;9.40;73.80;;;;;;5016581;28;20052;-79
2022/03/01 11:39:31;;;;;;;5.45;2.85;;;9.40;73.80;;;;;;5039148;28;20043;-79
2022/03/01 11:42:07;;;;;;;5.15;2.50;;;9.50;73.70;;;;;;5055642;28;20040;-79
2022/03/01 11:44:42;;;;;;;4.88;2.58;;;9.50;73.70;;;;;;5039363;28;20062;-79
2022/03/01 11:47:21;;;;;;;4.70;2.33;;;9.50;73.60;;;;;;5055641;28;20412;-79
2022/03/01 11:50:20;;;;;;;3.95;1.85;;;9.50;73.50;;;;;;5058722;28;20067;-79
2022/03/01 11:52:57;;;;;;;5.25;2.28;;;9.60;73.20;;;;;;5055697;28;20044;-78
2022/03/01 11:55:40;;;;;;;4.28;2.20;;;9.60;73.30;;;;;;5056191;28;20054;-79
2022/03/01 11:58:11;;;;;;;4.47;2.38;;;9.70;73.40;;;;;;5039250;28;20549;-79
2022/03/01 12:00:39;;;;;;;5.70;3.00;;;9.70;74.00;;;;;;5039187;28;20037;-77
2022/03/01 12:03:10;;;;;;;3.85;2.45;;;9.70;73.10;;;;;;5038872;28;20493;-76
2022/03/01 12:05:38;;;;;;;3.47;1.83;;;9.70;73.00;;;;;;5038740;28;20044;-76
2022/03/01 12:08:07;;;;;;;4.18;2.20;;;9.70;73.00;;;;;;5038649;28;20044;-78
2022/03/01 12:10:58;;;;;;;4.40;2.53;;;9.80;72.90;;;;;;5058033;28;20408;-81
2022/03/01 12:13:46;;;;;;;4.53;2.55;;;9.80;72.90;;;;;;5038690;28;20055;-77
2022/03/01 12:16:25;;;;;;;5.75;2.92;;;9.80;72.40;;;;;;5038635;28;20068;-79
2022/03/01 12:19:06;;;;;;;6.07;2.55;;;9.80;72.60;;;;;;5054651;28;20047;-78
2022/03/01 12:21:34;;;;;;;4.03;2.20;;;9.90;72.50;;;;;;5072793;28;20511;-78
2022/03/01 12:24:01;;;;;;;4.28;2.42;;;10.00;72.60;;;;;;5038684;28;20127;-80
2022/03/01 12:26:29;;;;;;;4.47;2.28;;;10.00;72.00;;;;;;5022777;28;20093;-76
2022/03/01 12:28:58;;;;;;;4.47;2.13;;;10.10;72.10;;;;;;5054936;28;20052;-79
2022/03/01 12:31:39;;;;;;;4.25;2.13;;;10.20;72.00;;;;;;5038191;28;20040;-84
2022/03/01 12:34:14;;;;;;;4.95;2.28;;;10.40;71.80;;;;;;5039600;28;20135;-78
2022/03/01 12:36:44;;;;;;;6.13;3.05;;;10.40;71.60;;;;;;5063329;28;20052;-77
2022/03/01 12:39:14;;;;;;;4.93;2.70;;;10.50;71.50;;;;;;5058645;28;20044;-77
2022/03/01 12:41:48;;;;;;;4.47;2.38;;;10.60;71.40;;;;;;5075826;28;20047;-75
2022/03/01 12:44:18;;;;;;;5.60;2.75;;;10.60;71.30;;;;;;5074511;28;20040;-78
2022/03/01 12:46:46;;;;;;;5.38;2.78;;;10.70;71.10;;;;;;5057928;28;20496;-76
2022/03/01 12:49:14;;;;;;;5.80;3.03;;;10.70;70.90;;;;;;5057890;28;20066;-84
2022/03/01 12:51:46;;;;;;;6.13;3.63;;;10.80;70.80;;;;;;5066689;28;20094;-82
2022/03/01 12:54:22;;;;;;;5.15;3.17;;;10.80;70.70;;;;;;5052357;28;20071;-83
2022/03/01 12:57:06;;;;;;;6.95;3.00;;;10.80;70.60;;;;;;5074656;28;20048;-82
2022/03/01 13:00:10;;;;;;;5.40;2.83;;;10.80;70.60;;;;;;5034461;28;20041;-78
2022/03/01 13:02:37;;;;;;;5.68;2.90;;;10.80;70.60;;;;;;5032721;28;20687;-82
2022/03/01 13:08:41;;;;;;;5.07;2.88;;;10.80;70.40;;;;;;5026269;28;20071;-84
2022/03/01 13:11:14;;;;;;;4.90;2.58;;;10.80;70.70;;;;;;5009636;28;20045;-86